Time,TemperatureF,DewpointF,PressureIn,WindDirection,WindDirectionDegrees,WindSpeedMPH,WindSpeedGustMPH,Humidity,HourlyPrecipIn,Conditions,Clouds,dailyrainin,SoftwareType,DateUTC
2013-02-16 00:04:00,74.1,69.7,30.01,South,169,3.0,7.0,86,0.00,,,0.00,VWS V13.00,2013-02-16 04:04:00,
2013-02-16 00:09:00,74.1,69.7,30.01,South,169,3.0,7.0,86,0.00,,,0.00,VWS V13.00,2013-02-16 04:09:00,
2013-02-16 00:14:00,74.0,69.6,30.00,South,171,1.0,7.0,86,0.00,,,0.00,VWS V13.00,2013-02-16 04:14:00,
2013-02-16 00:19:00,73.9,69.4,30.00,South,171,0.0,7.0,86,0.00,,,0.00,VWS V13.00,2013-02-16 04:19:00,
2013-02-16 00:24:00,73.9,69.4,30.01,South,171,0.0,7.0,86,0.00,,,0.00,VWS V13.00,2013-02-16 04:24:00,
2013-02-16 00:29:00,73.9,69.4,30.00,South,171,2.0,7.0,86,0.00,,,0.00,VWS V13.00,2013-02-16 04:29:00,
2013-02-16 00:34:00,73.6,69.2,30.00,South,176,1.0,5.0,86,0.00,,,0.00,VWS V13.00,2013-02-16 04:34:00,
2013-02-16 00:39:00,73.2,68.8,30.00,South,177,1.0,5.0,86,0.00,,,0.00,VWS V13.00,2013-02-16 04:39:00,
2013-02-16 00:44:00,73.0,68.6,30.00,South,181,4.0,5.0,86,0.00,,,0.00,VWS V13.00,2013-02-16 04:44:00,
2013-02-16 00:49:00,72.7,68.6,30.00,South,181,3.0,5.0,87,0.00,,,0.00,VWS V13.00,2013-02-16 04:49:00,
2013-02-16 00:54:00,72.4,68.3,30.00,South,181,1.0,5.0,87,0.00,,,0.00,VWS V13.00,2013-02-16 04:54:00,
2013-02-16 00:59:00,72.2,68.1,30.00,South,181,2.0,5.0,87,0.00,,,0.00,VWS V13.00,2013-02-16 04:59:00,
2013-02-16 01:00:00,72.2,68.4,30.00,South,181,0.0,5.0,88,0.00,,,0.00,VWS V13.00,2013-02-16 05:00:00,
2013-02-16 01:05:00,72.1,68.3,30.00,South,181,0.0,2.0,88,0.00,,,0.00,VWS V13.00,2013-02-16 05:05:00,
2013-02-16 01:10:00,72.1,68.3,30.00,South,181,1.0,2.0,88,0.00,,,0.00,VWS V13.00,2013-02-16 05:10:00,
2013-02-16 01:15:00,72.1,68.3,30.00,South,181,0.0,2.0,88,0.00,,,0.00,VWS V13.00,2013-02-16 05:15:00,
2013-02-16 01:20:00,72.1,68.3,30.00,South,181,0.0,2.0,88,0.00,,,0.00,VWS V13.00,2013-02-16 05:20:00,
2013-02-16 01:23:00,72.2,68.4,30.00,South,181,0.0,2.0,88,0.00,,,0.00,VWS V13.00,2013-02-16 05:23:00,
2013-02-16 01:28:00,72.5,68.8,30.00,South,182,0.0,5.0,88,0.00,,,0.00,VWS V13.00,2013-02-16 05:28:00,
2013-02-16 01:33:00,72.8,69.0,30.00,South,182,0.0,2.0,88,0.00,,,0.00,VWS V13.00,2013-02-16 05:33:00,
2013-02-16 01:38:00,73.1,69.3,29.99,South,182,1.0,3.0,88,0.00,,,0.00,VWS V13.00,2013-02-16 05:38:00,
2013-02-16 01:43:00,73.3,69.5,29.99,SSE,148,0.0,6.0,88,0.00,,,0.00,VWS V13.00,2013-02-16 05:43:00,
2013-02-16 01:48:00,73.5,69.4,29.99,SE,134,1.0,6.0,87,0.00,,,0.00,VWS V13.00,2013-02-16 05:48:00,
2013-02-16 01:53:00,73.8,69.7,29.99,SE,146,3.0,6.0,87,0.00,,,0.00,VWS V13.00,2013-02-16 05:53:00,
2013-02-16 01:58:00,73.8,69.7,29.99,SSE,147,1.0,6.0,87,0.00,,,0.00,VWS V13.00,2013-02-16 05:58:00,
2013-02-16 02:03:00,73.9,69.8,29.99,SE,146,1.0,2.0,87,0.00,,,0.00,VWS V13.00,2013-02-16 06:03:00,
2013-02-16 02:08:00,73.9,69.4,29.98,SSE,149,3.0,5.0,86,0.00,,,0.00,VWS V13.00,2013-02-16 06:08:00,
2013-02-16 02:13:00,73.9,69.8,29.98,SSE,157,2.0,5.0,87,0.00,,,0.00,VWS V13.00,2013-02-16 06:13:00,
2013-02-16 02:18:00,74.1,70.0,29.98,SE,128,3.0,5.0,87,0.00,,,0.00,VWS V13.00,2013-02-16 06:18:00,
2013-02-16 02:23:00,74.3,69.8,29.98,SE,139,4.0,6.0,86,0.00,,,0.00,VWS V13.00,2013-02-16 06:23:00,
2013-02-16 02:28:00,74.5,70.0,29.98,ESE,123,1.0,9.0,86,0.00,,,0.00,VWS V13.00,2013-02-16 06:28:00,
2013-02-16 02:33:00,74.9,70.4,29.98,ESE,111,1.0,6.0,86,0.00,,,0.00,VWS V13.00,2013-02-16 06:33:00,
2013-02-16 02:38:00,75.3,70.5,29.98,ESE,116,3.0,6.0,85,0.00,,,0.00,VWS V13.00,2013-02-16 06:38:00,
2013-02-16 02:43:00,75.5,70.3,29.97,SE,132,3.0,7.0,84,0.00,,,0.00,VWS V13.00,2013-02-16 06:43:00,
2013-02-16 02:48:00,75.7,70.2,29.97,SE,125,6.0,8.0,83,0.00,,,0.00,VWS V13.00,2013-02-16 06:48:00,
2013-02-16 02:53:00,76.0,70.5,29.97,ESE,123,3.0,9.0,83,0.00,,,0.00,VWS V13.00,2013-02-16 06:53:00,
2013-02-16 02:58:00,76.2,70.3,29.97,ENE,74,2.0,10.0,82,0.00,,,0.00,VWS V13.00,2013-02-16 06:58:00,
2013-02-16 03:03:00,75.8,69.6,29.97,East,88,1.0,8.0,81,0.00,,,0.00,VWS V13.00,2013-02-16 07:03:00,
2013-02-16 03:08:00,75.6,69.4,29.97,East,101,3.0,8.0,81,0.00,,,0.00,VWS V13.00,2013-02-16 07:08:00,
2013-02-16 03:13:00,75.6,69.7,29.97,ESE,109,3.0,8.0,82,0.00,,,0.00,VWS V13.00,2013-02-16 07:13:00,
2013-02-16 03:18:00,75.6,70.1,29.97,SSE,149,1.0,8.0,83,0.00,,,0.00,VWS V13.00,2013-02-16 07:18:00,
2013-02-16 03:23:00,75.5,70.0,29.97,SSE,150,1.0,8.0,83,0.00,,,0.00,VWS V13.00,2013-02-16 07:23:00,
2013-02-16 03:28:00,75.3,69.8,29.96,SSE,164,1.0,8.0,83,0.00,,,0.00,VWS V13.00,2013-02-16 07:28:00,
2013-02-16 03:33:00,74.9,69.4,29.96,ESE,122,2.0,3.0,83,0.00,,,0.00,VWS V13.00,2013-02-16 07:33:00,
2013-02-16 03:38:00,74.8,69.7,29.96,ESE,119,2.0,4.0,84,0.00,,,0.00,VWS V13.00,2013-02-16 07:38:00,
2013-02-16 03:43:00,74.7,69.6,29.96,SE,127,4.0,5.0,84,0.00,,,0.00,VWS V13.00,2013-02-16 07:43:00,
2013-02-16 03:48:00,74.7,69.6,29.96,SE,124,2.0,8.0,84,0.00,,,0.00,VWS V13.00,2013-02-16 07:48:00,
2013-02-16 03:53:00,74.7,69.6,29.95,SE,130,3.0,8.0,84,0.00,,,0.00,VWS V13.00,2013-02-16 07:53:00,
2013-02-16 03:58:00,74.7,69.9,29.96,SE,138,3.0,8.0,85,0.00,,,0.00,VWS V13.00,2013-02-16 07:58:00,
2013-02-16 04:03:00,74.7,69.9,29.96,SE,146,1.0,3.0,85,0.00,,,0.00,VWS V13.00,2013-02-16 08:03:00,
2013-02-16 04:08:00,74.6,69.4,29.95,SE,134,3.0,7.0,84,0.00,,,0.00,VWS V13.00,2013-02-16 08:08:00,
2013-02-16 04:13:00,74.5,69.7,29.95,SSE,155,4.0,7.0,85,0.00,,,0.00,VWS V13.00,2013-02-16 08:13:00,
2013-02-16 04:18:00,74.5,69.3,29.95,SE,139,2.0,7.0,84,0.00,,,0.00,VWS V13.00,2013-02-16 08:18:00,
2013-02-16 04:23:00,74.4,69.3,29.95,SE,132,7.0,10.0,84,0.00,,,0.00,VWS V13.00,2013-02-16 08:23:00,
2013-02-16 04:28:00,74.4,69.3,29.95,ESE,120,5.0,10.0,84,0.00,,,0.00,VWS V13.00,2013-02-16 08:28:00,
2013-02-16 04:33:00,74.3,69.2,29.95,SE,130,1.0,5.0,84,0.00,,,0.00,VWS V13.00,2013-02-16 08:33:00,
2013-02-16 04:38:00,74.1,69.3,29.95,SE,136,2.0,7.0,85,0.00,,,0.00,VWS V13.00,2013-02-16 08:38:00,
2013-02-16 04:43:00,74.0,69.2,29.94,ESE,108,2.0,7.0,85,0.00,,,0.00,VWS V13.00,2013-02-16 08:43:00,
2013-02-16 04:48:00,73.9,69.1,29.94,SSE,153,4.0,7.0,85,0.00,,,0.00,VWS V13.00,2013-02-16 08:48:00,
2013-02-16 04:52:00,73.8,69.0,29.95,ESE,103,3.0,9.0,85,0.00,,,0.00,VWS V13.00,2013-02-16 08:52:00,
2013-02-16 04:57:00,73.8,69.0,29.94,SE,124,1.0,9.0,85,0.00,,,0.00,VWS V13.00,2013-02-16 08:57:00,
2013-02-16 05:02:00,73.9,69.1,29.95,SE,142,4.0,7.0,85,0.00,,,0.00,VWS V13.00,2013-02-16 09:02:00,
2013-02-16 05:07:00,74.0,69.2,29.94,ESE,123,4.0,9.0,85,0.00,,,0.00,VWS V13.00,2013-02-16 09:07:00,
2013-02-16 05:12:00,74.0,68.9,29.94,SE,132,3.0,9.0,84,0.00,,,0.00,VWS V13.00,2013-02-16 09:12:00,
2013-02-16 05:17:00,74.0,68.9,29.94,ESE,114,3.0,9.0,84,0.00,,,0.00,VWS V13.00,2013-02-16 09:17:00,
2013-02-16 05:22:00,74.0,68.9,29.94,SE,124,1.0,9.0,84,0.00,,,0.00,VWS V13.00,2013-02-16 09:22:00,
2013-02-16 05:27:00,74.0,68.5,29.95,ESE,121,2.0,9.0,83,0.00,,,0.00,VWS V13.00,2013-02-16 09:27:00,
2013-02-16 05:32:00,74.0,68.5,29.94,East,101,3.0,5.0,83,0.00,,,0.00,VWS V13.00,2013-02-16 09:32:00,
2013-02-16 05:37:00,74.0,68.5,29.95,SE,130,4.0,7.0,83,0.00,,,0.00,VWS V13.00,2013-02-16 09:37:00,
2013-02-16 05:42:00,74.0,68.5,29.95,SE,140,4.0,7.0,83,0.00,,,0.00,VWS V13.00,2013-02-16 09:42:00,
2013-02-16 05:47:00,74.1,68.6,29.95,SE,126,2.0,10.0,83,0.00,,,0.00,VWS V13.00,2013-02-16 09:47:00,
2013-02-16 05:52:00,74.1,68.3,29.95,East,97,1.0,10.0,82,0.00,,,0.00,VWS V13.00,2013-02-16 09:52:00,
2013-02-16 05:57:00,74.3,68.4,29.95,SE,124,1.0,11.0,82,0.00,,,0.00,VWS V13.00,2013-02-16 09:57:00,
2013-02-16 06:02:00,74.4,68.6,29.95,SSE,158,1.0,5.0,82,0.00,,,0.00,VWS V13.00,2013-02-16 10:02:00,
2013-02-16 06:07:00,74.4,68.6,29.96,SE,146,3.0,5.0,82,0.00,,,0.00,VWS V13.00,2013-02-16 10:07:00,
2013-02-16 06:12:00,74.4,68.9,29.96,SE,138,1.0,5.0,83,0.00,,,0.00,VWS V13.00,2013-02-16 10:12:00,
2013-02-16 06:17:00,74.3,68.8,29.96,SSE,159,2.0,5.0,83,0.00,,,0.00,VWS V13.00,2013-02-16 10:17:00,
2013-02-16 06:22:00,74.2,68.7,29.96,SSE,158,4.0,5.0,83,0.00,,,0.00,VWS V13.00,2013-02-16 10:22:00,
2013-02-16 06:27:00,74.0,68.5,29.97,SSE,159,1.0,5.0,83,0.00,,,0.00,VWS V13.00,2013-02-16 10:27:00,
2013-02-16 06:32:00,73.9,68.8,29.97,SSE,156,0.0,2.0,84,0.00,,,0.00,VWS V13.00,2013-02-16 10:32:00,
2013-02-16 06:37:00,73.9,68.8,29.97,SE,138,0.0,4.0,84,0.00,,,0.00,VWS V13.00,2013-02-16 10:37:00,
2013-02-16 06:42:00,73.9,68.8,29.97,SE,146,1.0,4.0,84,0.00,,,0.00,VWS V13.00,2013-02-16 10:42:00,
2013-02-16 06:47:00,73.8,68.7,29.98,SE,146,1.0,4.0,84,0.00,,,0.00,VWS V13.00,2013-02-16 10:47:00,
2013-02-16 06:52:00,73.7,68.9,29.98,SE,146,0.0,4.0,85,0.00,,,0.00,VWS V13.00,2013-02-16 10:52:00,
2013-02-16 06:57:00,73.7,68.9,29.98,SE,146,0.0,4.0,85,0.00,,,0.00,VWS V13.00,2013-02-16 10:57:00,
2013-02-16 07:02:00,73.6,68.8,29.98,SE,137,2.0,3.0,85,0.00,,,0.00,VWS V13.00,2013-02-16 11:02:00,
2013-02-16 07:07:00,73.7,69.3,29.98,ESE,115,1.0,7.0,86,0.00,,,0.00,VWS V13.00,2013-02-16 11:07:00,
2013-02-16 07:12:00,73.8,69.3,29.98,ESE,117,3.0,7.0,86,0.00,,,0.00,VWS V13.00,2013-02-16 11:12:00,
2013-02-16 07:17:00,74.0,69.6,29.98,SE,141,2.0,7.0,86,0.00,,,0.00,VWS V13.00,2013-02-16 11:17:00,
2013-02-16 07:22:00,74.3,69.5,29.98,ESE,121,2.0,8.0,85,0.00,,,0.00,VWS V13.00,2013-02-16 11:22:00,
2013-02-16 07:27:00,74.5,69.7,29.99,SE,128,2.0,8.0,85,0.00,,,0.00,VWS V13.00,2013-02-16 11:27:00,
2013-02-16 07:32:00,74.8,70.0,29.99,SE,138,1.0,4.0,85,0.00,,,0.00,VWS V13.00,2013-02-16 11:32:00,
2013-02-16 07:37:00,75.1,69.9,29.99,SE,146,3.0,8.0,84,0.00,,,0.00,VWS V13.00,2013-02-16 11:37:00,
2013-02-16 07:42:00,75.6,70.4,29.99,SE,146,2.0,8.0,84,0.00,,,0.00,VWS V13.00,2013-02-16 11:42:00,
2013-02-16 07:47:00,76.2,70.7,29.99,SE,142,2.0,8.0,83,0.00,,,0.00,VWS V13.00,2013-02-16 11:47:00,
2013-02-16 07:52:00,76.7,70.8,29.99,ESE,116,0.0,8.0,82,0.00,,,0.00,VWS V13.00,2013-02-16 11:52:00,
2013-02-16 07:57:00,77.2,70.9,29.99,SSE,148,4.0,8.0,81,0.00,,,0.00,VWS V13.00,2013-02-16 11:57:00,
2013-02-16 08:02:00,77.4,70.4,29.99,ESE,107,1.0,11.0,79,0.00,,,0.00,VWS V13.00,2013-02-16 12:02:00,
2013-02-16 08:07:00,77.7,70.7,29.99,SE,130,6.0,11.0,79,0.00,,,0.00,VWS V13.00,2013-02-16 12:07:00,
2013-02-16 08:12:00,77.9,70.5,29.99,SE,137,8.0,11.0,78,0.00,,,0.00,VWS V13.00,2013-02-16 12:12:00,
2013-02-16 08:17:00,78.3,70.9,29.99,SSE,150,7.0,11.0,78,0.00,,,0.00,VWS V13.00,2013-02-16 12:17:00,
2013-02-16 08:22:00,78.6,70.8,29.99,SE,135,6.0,12.0,77,0.00,,,0.00,VWS V13.00,2013-02-16 12:22:00,
2013-02-16 08:27:00,78.9,71.1,30.00,SE,136,2.0,12.0,77,0.00,,,0.00,VWS V13.00,2013-02-16 12:27:00,
2013-02-16 08:32:00,79.1,70.9,30.00,SE,145,6.0,11.0,76,0.00,,,0.00,VWS V13.00,2013-02-16 12:32:00,
2013-02-16 08:37:00,79.2,70.6,30.00,SE,139,6.0,13.0,75,0.00,,,0.00,VWS V13.00,2013-02-16 12:37:00,
2013-02-16 08:42:00,79.2,70.2,30.00,SSE,156,5.0,14.0,74,0.00,,,0.00,VWS V13.00,2013-02-16 12:42:00,
2013-02-16 08:47:00,79.4,70.4,30.00,SE,134,5.0,14.0,74,0.00,,,0.00,VWS V13.00,2013-02-16 12:47:00,
2013-02-16 08:52:00,79.7,70.7,30.00,SE,139,6.0,14.0,74,0.00,,,0.00,VWS V13.00,2013-02-16 12:52:00,
2013-02-16 08:57:00,80.1,71.1,30.00,SE,144,3.0,14.0,74,0.00,,,0.00,VWS V13.00,2013-02-16 12:57:00,
2013-02-16 09:02:00,80.0,70.6,30.00,SE,135,1.0,4.0,73,0.00,,,0.00,VWS V13.00,2013-02-16 13:02:00,
2013-02-16 09:07:00,79.5,70.1,30.00,ESE,115,11.0,11.0,73,0.00,,,0.00,VWS V13.00,2013-02-16 13:07:00,
2013-02-16 09:12:00,79.4,70.4,30.00,ESE,107,3.0,13.0,74,0.00,,,0.00,VWS V13.00,2013-02-16 13:12:00,
2013-02-16 09:17:00,79.8,70.8,30.00,SSE,157,2.0,13.0,74,0.00,,,0.00,VWS V13.00,2013-02-16 13:17:00,
2013-02-16 09:22:00,80.2,69.9,30.00,ESE,121,10.0,14.0,71,0.00,,,0.00,VWS V13.00,2013-02-16 13:22:00,
2013-02-16 09:27:00,80.3,69.6,30.00,ESE,103,9.0,15.0,70,0.00,,,0.00,VWS V13.00,2013-02-16 13:27:00,
2013-02-16 09:32:00,80.6,70.3,30.00,SE,134,6.0,8.0,71,0.00,,,0.00,VWS V13.00,2013-02-16 13:32:00,
2013-02-16 09:37:00,81.0,70.3,30.00,SSE,147,4.0,14.0,70,0.00,,,0.00,VWS V13.00,2013-02-16 13:37:00,
2013-02-16 09:42:00,81.1,70.4,30.00,South,177,3.0,15.0,70,0.00,,,0.00,VWS V13.00,2013-02-16 13:42:00,
2013-02-16 09:47:00,81.2,70.1,30.00,South,169,6.0,15.0,69,0.00,,,0.00,VWS V13.00,2013-02-16 13:47:00,
2013-02-16 09:52:00,81.6,70.4,30.00,ESE,107,4.0,15.0,69,0.00,,,0.00,VWS V13.00,2013-02-16 13:52:00,
2013-02-16 09:57:00,82.0,69.5,30.00,SE,134,6.0,15.0,66,0.00,,,0.00,VWS V13.00,2013-02-16 13:57:00,
2013-02-16 10:02:00,82.3,69.4,30.00,SE,140,6.0,11.0,65,0.00,,,0.00,VWS V13.00,2013-02-16 14:02:00,
2013-02-16 10:07:00,82.1,70.5,30.00,SE,138,5.0,12.0,68,0.00,,,0.00,VWS V13.00,2013-02-16 14:07:00,
2013-02-16 10:12:00,82.4,70.3,30.00,ESE,119,3.0,14.0,67,0.00,,,0.00,VWS V13.00,2013-02-16 14:12:00,
2013-02-16 10:17:00,82.1,70.1,30.00,East,86,2.0,15.0,67,0.00,,,0.00,VWS V13.00,2013-02-16 14:17:00,
2013-02-16 10:22:00,82.6,69.7,30.00,SSE,153,7.0,15.0,65,0.00,,,0.00,VWS V13.00,2013-02-16 14:22:00,
2013-02-16 10:27:00,82.7,69.3,30.00,SE,133,10.0,15.0,64,0.00,,,0.00,VWS V13.00,2013-02-16 14:27:00,
2013-02-16 10:32:00,82.7,69.8,30.00,SE,126,13.0,13.0,65,0.00,,,0.00,VWS V13.00,2013-02-16 14:32:00,
2013-02-16 10:37:00,82.6,69.7,30.00,SSE,148,11.0,17.0,65,0.00,,,0.00,VWS V13.00,2013-02-16 14:37:00,
2013-02-16 10:42:00,82.3,68.9,30.00,SSE,151,6.0,17.0,64,0.00,,,0.00,VWS V13.00,2013-02-16 14:42:00,
2013-02-16 10:47:00,82.4,69.9,30.00,East,84,9.0,17.0,66,0.00,,,0.00,VWS V13.00,2013-02-16 14:47:00,
2013-02-16 10:52:00,82.7,69.3,30.00,East,98,5.0,17.0,64,0.00,,,0.00,VWS V13.00,2013-02-16 14:52:00,
2013-02-16 10:57:00,83.1,69.2,30.00,SSE,159,2.0,17.0,63,0.00,,,0.00,VWS V13.00,2013-02-16 14:57:00,
2013-02-16 11:02:00,83.2,69.8,30.00,ESE,119,5.0,11.0,64,0.00,,,0.00,VWS V13.00,2013-02-16 15:02:00,
2013-02-16 11:07:00,83.1,69.2,29.99,SE,145,3.0,19.0,63,0.00,,,0.00,VWS V13.00,2013-02-16 15:07:00,
2013-02-16 11:12:00,83.0,70.0,29.99,East,80,2.0,19.0,65,0.00,,,0.00,VWS V13.00,2013-02-16 15:12:00,
2013-02-16 11:17:00,82.8,70.3,29.99,ESE,117,2.0,19.0,66,0.00,,,0.00,VWS V13.00,2013-02-16 15:17:00,
2013-02-16 11:22:00,83.1,71.0,29.99,ESE,112,4.0,19.0,67,0.00,,,0.00,VWS V13.00,2013-02-16 15:22:00,
2013-02-16 11:27:00,83.3,71.2,29.99,SSE,152,5.0,19.0,67,0.00,,,0.00,VWS V13.00,2013-02-16 15:27:00,
2013-02-16 11:32:00,83.4,69.9,29.99,South,179,4.0,9.0,64,0.00,,,0.00,VWS V13.00,2013-02-16 15:32:00,
2013-02-16 11:37:00,83.8,71.2,29.99,ENE,76,1.0,9.0,66,0.00,,,0.00,VWS V13.00,2013-02-16 15:37:00,
2013-02-16 11:42:00,83.9,71.8,29.99,SE,132,2.0,10.0,67,0.00,,,0.00,VWS V13.00,2013-02-16 15:42:00,
2013-02-16 11:47:00,84.0,71.4,29.99,ESE,107,2.0,11.0,66,0.00,,,0.00,VWS V13.00,2013-02-16 15:47:00,
2013-02-16 11:52:00,83.8,71.2,29.98,East,86,3.0,11.0,66,0.00,,,0.00,VWS V13.00,2013-02-16 15:52:00,
2013-02-16 11:57:00,83.5,70.9,29.98,East,90,6.0,11.0,66,0.00,,,0.00,VWS V13.00,2013-02-16 15:57:00,
2013-02-16 12:02:00,83.7,70.7,29.98,SSE,158,8.0,9.0,65,0.00,,,0.00,VWS V13.00,2013-02-16 16:02:00,
2013-02-16 12:07:00,84.0,72.3,29.98,East,94,2.0,10.0,68,0.00,,,0.00,VWS V13.00,2013-02-16 16:07:00,
2013-02-16 12:12:00,84.1,72.4,29.97,East,95,7.0,10.0,68,0.00,,,0.00,VWS V13.00,2013-02-16 16:12:00,
2013-02-16 12:17:00,84.2,72.1,29.98,ESE,115,7.0,11.0,67,0.00,,,0.00,VWS V13.00,2013-02-16 16:17:00,
2013-02-16 12:22:00,83.9,71.8,29.97,ESE,121,4.0,11.0,67,0.00,,,0.00,VWS V13.00,2013-02-16 16:22:00,
2013-02-16 12:27:00,83.7,72.5,29.97,SSW,208,4.0,11.0,69,0.00,,,0.00,VWS V13.00,2013-02-16 16:27:00,
2013-02-16 12:32:00,84.1,72.4,29.97,East,101,6.0,10.0,68,0.00,,,0.00,VWS V13.00,2013-02-16 16:32:00,
2013-02-16 12:37:00,84.0,71.9,29.96,ESE,116,4.0,11.0,67,0.00,,,0.00,VWS V13.00,2013-02-16 16:37:00,
2013-02-16 12:42:00,83.9,72.2,29.96,East,94,6.0,11.0,68,0.00,,,0.00,VWS V13.00,2013-02-16 16:42:00,
2013-02-16 12:47:00,83.6,71.5,29.96,East,91,6.0,16.0,67,0.00,,,0.00,VWS V13.00,2013-02-16 16:47:00,
2013-02-16 12:52:00,84.0,71.9,29.96,SSE,149,6.0,16.0,67,0.00,,,0.00,VWS V13.00,2013-02-16 16:52:00,
2013-02-16 12:57:00,84.4,71.4,29.96,South,172,4.0,16.0,65,0.00,,,0.00,VWS V13.00,2013-02-16 16:57:00,
2013-02-16 13:02:00,84.8,70.8,29.95,South,176,1.0,7.0,63,0.00,,,0.00,VWS V13.00,2013-02-16 17:02:00,
2013-02-16 13:07:00,85.0,70.5,29.95,SSE,166,5.0,13.0,62,0.00,,,0.00,VWS V13.00,2013-02-16 17:07:00,
2013-02-16 13:12:00,84.9,70.0,29.95,SE,125,5.0,15.0,61,0.00,,,0.00,VWS V13.00,2013-02-16 17:12:00,
2013-02-16 13:17:00,84.8,70.8,29.95,SE,139,5.0,15.0,63,0.00,,,0.00,VWS V13.00,2013-02-16 17:17:00,
2013-02-16 13:22:00,84.8,70.3,29.94,ESE,104,4.0,15.0,62,0.00,,,0.00,VWS V13.00,2013-02-16 17:22:00,
2013-02-16 13:27:00,84.8,71.7,29.94,ESE,102,10.0,15.0,65,0.00,,,0.00,VWS V13.00,2013-02-16 17:27:00,
2013-02-16 13:32:00,84.5,72.3,29.94,East,91,5.0,10.0,67,0.00,,,0.00,VWS V13.00,2013-02-16 17:32:00,
2013-02-16 13:37:00,84.0,71.9,29.94,East,81,2.0,13.0,67,0.00,,,0.00,VWS V13.00,2013-02-16 17:37:00,
2013-02-16 13:42:00,83.9,71.8,29.94,SE,134,4.0,13.0,67,0.00,,,0.00,VWS V13.00,2013-02-16 17:42:00,
2013-02-16 13:47:00,83.8,71.7,29.93,ESE,103,3.0,13.0,67,0.00,,,0.00,VWS V13.00,2013-02-16 17:47:00,
2013-02-16 13:52:00,83.3,71.2,29.93,East,100,8.0,13.0,67,0.00,,,0.00,VWS V13.00,2013-02-16 17:52:00,
2013-02-16 13:57:00,83.6,71.1,29.93,ESE,107,3.0,13.0,66,0.00,,,0.00,VWS V13.00,2013-02-16 17:57:00,
2013-02-16 14:02:00,83.5,70.5,29.93,SSE,157,6.0,10.0,65,0.00,,,0.00,VWS V13.00,2013-02-16 18:02:00,
2013-02-16 14:07:00,83.3,70.3,29.93,SE,142,7.0,11.0,65,0.00,,,0.00,VWS V13.00,2013-02-16 18:07:00,
2013-02-16 14:12:00,83.6,71.1,29.92,SSE,167,6.0,11.0,66,0.00,,,0.00,VWS V13.00,2013-02-16 18:12:00,
2013-02-16 14:17:00,84.0,70.1,29.92,East,90,5.0,14.0,63,0.00,,,0.00,VWS V13.00,2013-02-16 18:17:00,
2013-02-16 14:22:00,84.6,70.2,29.92,ESE,111,2.0,14.0,62,0.00,,,0.00,VWS V13.00,2013-02-16 18:22:00,
2013-02-16 14:27:00,84.3,69.4,29.92,ESE,110,10.0,14.0,61,0.00,,,0.00,VWS V13.00,2013-02-16 18:27:00,
2013-02-16 14:32:00,83.7,69.8,29.92,SE,140,5.0,7.0,63,0.00,,,0.00,VWS V13.00,2013-02-16 18:32:00,
2013-02-16 14:37:00,83.6,69.7,29.92,SE,130,5.0,11.0,63,0.00,,,0.00,VWS V13.00,2013-02-16 18:37:00,
2013-02-16 14:42:00,83.4,69.9,29.92,SE,125,6.0,11.0,64,0.00,,,0.00,VWS V13.00,2013-02-16 18:42:00,
2013-02-16 14:47:00,83.0,69.6,29.92,SE,126,8.0,13.0,64,0.00,,,0.00,VWS V13.00,2013-02-16 18:47:00,
2013-02-16 14:52:00,83.3,69.4,29.92,ESE,119,7.0,13.0,63,0.00,,,0.00,VWS V13.00,2013-02-16 18:52:00,
2013-02-16 14:57:00,83.9,67.1,29.92,SSE,155,6.0,14.0,57,0.00,,,0.00,VWS V13.00,2013-02-16 18:57:00,
2013-02-16 15:02:00,84.4,68.0,29.91,SSW,192,4.0,11.0,58,0.00,,,0.00,VWS V13.00,2013-02-16 19:02:00,
2013-02-16 15:07:00,84.5,68.1,29.91,South,180,3.0,11.0,58,0.00,,,0.00,VWS V13.00,2013-02-16 19:07:00,
2013-02-16 15:12:00,84.6,68.2,29.91,South,175,5.0,12.0,58,0.00,,,0.00,VWS V13.00,2013-02-16 19:12:00,
2013-02-16 15:17:00,84.8,67.9,29.91,South,182,3.0,12.0,57,0.00,,,0.00,VWS V13.00,2013-02-16 19:17:00,
2013-02-16 15:22:00,84.5,68.6,29.91,SSE,156,4.0,13.0,59,0.00,,,0.00,VWS V13.00,2013-02-16 19:22:00,
2013-02-16 15:27:00,84.4,67.5,29.91,SSW,193,9.0,13.0,57,0.00,,,0.00,VWS V13.00,2013-02-16 19:27:00,
2013-02-16 15:32:00,84.5,68.6,29.91,SSE,150,2.0,8.0,59,0.00,,,0.00,VWS V13.00,2013-02-16 19:32:00,
2013-02-16 15:37:00,84.7,68.3,29.91,SSW,194,7.0,13.0,58,0.00,,,0.00,VWS V13.00,2013-02-16 19:37:00,
2013-02-16 15:42:00,84.4,68.5,29.91,South,189,3.0,13.0,59,0.00,,,0.00,VWS V13.00,2013-02-16 19:42:00,
2013-02-16 15:47:00,84.6,68.7,29.91,South,171,3.0,13.0,59,0.00,,,0.00,VWS V13.00,2013-02-16 19:47:00,
2013-02-16 15:52:00,84.4,67.5,29.91,SE,143,4.0,13.0,57,0.00,,,0.00,VWS V13.00,2013-02-16 19:52:00,
2013-02-16 15:57:00,84.0,67.7,29.91,ESE,113,2.0,13.0,58,0.00,,,0.00,VWS V13.00,2013-02-16 19:57:00,
2013-02-16 16:02:00,83.8,68.0,29.91,South,171,6.0,11.0,59,0.00,,,0.00,VWS V13.00,2013-02-16 20:02:00,
2013-02-16 16:07:00,83.4,67.6,29.91,SSE,167,4.0,11.0,59,0.00,,,0.00,VWS V13.00,2013-02-16 20:07:00,
2013-02-16 16:12:00,83.4,68.1,29.92,South,178,1.0,11.0,60,0.00,,,0.00,VWS V13.00,2013-02-16 20:12:00,
2013-02-16 16:17:00,84.2,71.2,29.91,SSE,166,1.0,11.0,65,0.00,,,0.00,VWS V13.00,2013-02-16 20:17:00,
2013-02-16 16:22:00,84.2,70.7,29.91,SSE,147,1.0,11.0,64,0.00,,,0.00,VWS V13.00,2013-02-16 20:22:00,
2013-02-16 16:27:00,84.4,71.4,29.91,ESE,123,5.0,11.0,65,0.00,,,0.00,VWS V13.00,2013-02-16 20:27:00,
2013-02-16 16:32:00,84.5,71.9,29.91,ESE,119,3.0,10.0,66,0.00,,,0.00,VWS V13.00,2013-02-16 20:32:00,
2013-02-16 16:37:00,84.1,72.0,29.91,SE,125,8.0,10.0,67,0.00,,,0.00,VWS V13.00,2013-02-16 20:37:00,
2013-02-16 16:42:00,83.8,70.8,29.91,SSE,154,2.0,10.0,65,0.00,,,0.00,VWS V13.00,2013-02-16 20:42:00,
2013-02-16 16:47:00,83.8,71.7,29.91,SSE,147,7.0,11.0,67,0.00,,,0.00,VWS V13.00,2013-02-16 20:47:00,
2013-02-16 16:52:00,83.4,71.7,29.92,East,90,3.0,11.0,68,0.00,,,0.00,VWS V13.00,2013-02-16 20:52:00,
2013-02-16 16:57:00,83.4,71.7,29.92,ESE,114,3.0,11.0,68,0.00,,,0.00,VWS V13.00,2013-02-16 20:57:00,
2013-02-16 17:02:00,83.4,72.2,29.92,ESE,103,4.0,4.0,69,0.00,,,0.00,VWS V13.00,2013-02-16 21:02:00,
2013-02-16 17:07:00,83.6,71.9,29.92,SE,124,4.0,7.0,68,0.00,,,0.00,VWS V13.00,2013-02-16 21:07:00,
2013-02-16 17:12:00,83.6,72.4,29.92,ESE,105,1.0,7.0,69,0.00,,,0.00,VWS V13.00,2013-02-16 21:12:00,
2013-02-16 17:17:00,83.6,72.4,29.92,ESE,117,2.0,7.0,69,0.00,,,0.00,VWS V13.00,2013-02-16 21:17:00,
2013-02-16 17:22:00,83.1,71.0,29.92,SE,130,1.0,7.0,67,0.00,,,0.00,VWS V13.00,2013-02-16 21:22:00,
2013-02-16 17:27:00,82.6,69.7,29.93,SE,138,5.0,7.0,65,0.00,,,0.00,VWS V13.00,2013-02-16 21:27:00,
2013-02-16 17:32:00,82.2,70.6,29.93,SE,141,2.0,3.0,68,0.00,,,0.00,VWS V13.00,2013-02-16 21:32:00,
2013-02-16 17:37:00,82.2,71.9,29.93,ESE,103,1.0,3.0,71,0.00,,,0.00,VWS V13.00,2013-02-16 21:37:00,
2013-02-16 17:42:00,81.9,71.6,29.93,SE,124,2.0,4.0,71,0.00,,,0.00,VWS V13.00,2013-02-16 21:42:00,
2013-02-16 17:47:00,81.5,71.2,29.93,East,95,6.0,6.0,71,0.00,,,0.00,VWS V13.00,2013-02-16 21:47:00,
2013-02-16 17:52:00,81.1,71.2,29.93,SSE,154,2.0,10.0,72,0.00,,,0.00,VWS V13.00,2013-02-16 21:52:00,
2013-02-16 17:57:00,80.8,70.9,29.94,SE,131,1.0,10.0,72,0.00,,,0.00,VWS V13.00,2013-02-16 21:57:00,
2013-02-16 18:02:00,80.6,71.2,29.94,ESE,112,1.0,5.0,73,0.00,,,0.00,VWS V13.00,2013-02-16 22:02:00,
2013-02-16 18:07:00,80.5,71.1,29.94,SE,136,3.0,7.0,73,0.00,,,0.00,VWS V13.00,2013-02-16 22:07:00,
2013-02-16 18:12:00,80.2,70.8,29.94,SE,140,1.0,10.0,73,0.00,,,0.00,VWS V13.00,2013-02-16 22:12:00,
2013-02-16 18:17:00,79.9,70.5,29.94,SE,144,5.0,10.0,73,0.00,,,0.00,VWS V13.00,2013-02-16 22:17:00,
2013-02-16 18:22:00,79.7,70.3,29.94,SE,141,3.0,10.0,73,0.00,,,0.00,VWS V13.00,2013-02-16 22:22:00,
2013-02-16 18:27:00,79.5,70.1,29.94,SSE,161,2.0,10.0,73,0.00,,,0.00,VWS V13.00,2013-02-16 22:27:00,
2013-02-16 18:32:00,79.4,70.0,29.94,SE,128,6.0,9.0,73,0.00,,,0.00,VWS V13.00,2013-02-16 22:32:00,
2013-02-16 18:37:00,79.3,69.9,29.94,ESE,103,4.0,9.0,73,0.00,,,0.00,VWS V13.00,2013-02-16 22:37:00,
2013-02-16 18:43:00,79.2,69.8,29.94,ESE,123,3.0,9.0,73,0.00,,,0.00,VWS V13.00,2013-02-16 22:43:00,
2013-02-16 18:48:00,79.0,70.0,29.95,ESE,111,0.0,9.0,74,0.00,,,0.00,VWS V13.00,2013-02-16 22:48:00,
2013-02-16 18:53:00,78.9,69.9,29.95,SE,138,0.0,9.0,74,0.00,,,0.00,VWS V13.00,2013-02-16 22:53:00,
2013-02-16 18:58:00,78.8,70.2,29.95,ESE,115,0.0,9.0,75,0.00,,,0.00,VWS V13.00,2013-02-16 22:58:00,
2013-02-16 19:03:00,78.7,70.1,29.95,SE,144,2.0,6.0,75,0.00,,,0.00,VWS V13.00,2013-02-16 23:03:00,
2013-02-16 19:07:00,78.6,70.4,29.95,SE,134,3.0,6.0,76,0.00,,,0.00,VWS V13.00,2013-02-16 23:07:00,
2013-02-16 19:12:00,78.4,70.2,29.95,SE,127,3.0,7.0,76,0.00,,,0.00,VWS V13.00,2013-02-16 23:12:00,
2013-02-16 19:17:00,78.4,70.2,29.95,SE,129,1.0,7.0,76,0.00,,,0.00,VWS V13.00,2013-02-16 23:17:00,
2013-02-16 19:22:00,78.3,70.5,29.95,SE,139,3.0,7.0,77,0.00,,,0.00,VWS V13.00,2013-02-16 23:22:00,
2013-02-16 19:28:00,78.2,70.4,29.96,ESE,121,3.0,7.0,77,0.00,,,0.00,VWS V13.00,2013-02-16 23:28:00,
2013-02-16 19:33:00,78.0,70.2,29.96,SE,144,2.0,7.0,77,0.00,,,0.00,VWS V13.00,2013-02-16 23:33:00,
2013-02-16 19:38:00,77.9,70.1,29.96,SE,146,1.0,7.0,77,0.00,,,0.00,VWS V13.00,2013-02-16 23:38:00,
2013-02-16 19:43:00,77.8,70.0,29.96,SSE,161,2.0,7.0,77,0.00,,,0.00,VWS V13.00,2013-02-16 23:43:00,
2013-02-16 19:48:00,77.6,69.8,29.97,SE,144,1.0,7.0,77,0.00,,,0.00,VWS V13.00,2013-02-16 23:48:00,
2013-02-16 19:53:00,77.5,69.7,29.97,SSE,154,2.0,7.0,77,0.00,,,0.00,VWS V13.00,2013-02-16 23:53:00,
2013-02-16 19:58:00,77.4,69.6,29.97,SSE,153,3.0,7.0,77,0.00,,,0.00,VWS V13.00,2013-02-16 23:58:00,
2013-02-16 20:03:00,77.3,69.5,29.97,SSE,153,0.0,2.0,77,0.00,,,0.00,VWS V13.00,2013-02-17 00:03:00,
2013-02-16 20:08:00,77.3,69.5,29.97,ESE,120,3.0,5.0,77,0.00,,,0.00,VWS V13.00,2013-02-17 00:08:00,
2013-02-16 20:13:00,77.2,69.4,29.98,SE,134,2.0,6.0,77,0.00,,,0.00,VWS V13.00,2013-02-17 00:13:00,
2013-02-16 20:18:00,77.1,69.3,29.98,SE,136,1.0,6.0,77,0.00,,,0.00,VWS V13.00,2013-02-17 00:18:00,
2013-02-16 20:23:00,77.1,69.3,29.98,SE,136,2.0,6.0,77,0.00,,,0.00,VWS V13.00,2013-02-17 00:23:00,
2013-02-16 20:28:00,77.1,69.3,29.98,SE,136,2.0,6.0,77,0.00,,,0.00,VWS V13.00,2013-02-17 00:28:00,
2013-02-16 20:33:00,77.0,69.2,29.98,SE,136,0.0,3.0,77,0.00,,,0.00,VWS V13.00,2013-02-17 00:33:00,
2013-02-16 20:38:00,77.0,69.2,29.99,SE,136,0.0,3.0,77,0.00,,,0.00,VWS V13.00,2013-02-17 00:38:00,
2013-02-16 20:43:00,76.9,69.2,29.99,SE,136,0.0,3.0,77,0.00,,,0.00,VWS V13.00,2013-02-17 00:43:00,
2013-02-16 20:48:00,76.8,69.1,29.99,SE,136,2.0,3.0,77,0.00,,,0.00,VWS V13.00,2013-02-17 00:48:00,
2013-02-16 20:53:00,76.9,69.2,29.99,SE,136,2.0,4.0,77,0.00,,,0.00,VWS V13.00,2013-02-17 00:53:00,
2013-02-16 20:58:00,76.8,69.1,29.99,SE,136,0.0,4.0,77,0.00,,,0.00,VWS V13.00,2013-02-17 00:58:00,
2013-02-16 21:03:00,76.8,69.1,29.99,SE,138,2.0,3.0,77,0.00,,,0.00,VWS V13.00,2013-02-17 01:03:00,
2013-02-16 21:08:00,76.8,69.4,29.99,SE,126,1.0,4.0,78,0.00,,,0.00,VWS V13.00,2013-02-17 01:08:00,
2013-02-16 21:13:00,76.8,69.4,29.99,SE,126,0.0,4.0,78,0.00,,,0.00,VWS V13.00,2013-02-17 01:13:00,
2013-02-16 21:18:00,76.8,69.4,29.99,SE,126,0.0,4.0,78,0.00,,,0.00,VWS V13.00,2013-02-17 01:18:00,
2013-02-16 21:23:00,76.7,69.3,30.00,SE,130,1.0,4.0,78,0.00,,,0.00,VWS V13.00,2013-02-17 01:23:00,
2013-02-16 21:28:00,76.7,69.3,30.00,SE,131,3.0,4.0,78,0.00,,,0.00,VWS V13.00,2013-02-17 01:28:00,
2013-02-16 21:33:00,76.7,69.7,30.00,SE,132,2.0,4.0,79,0.00,,,0.00,VWS V13.00,2013-02-17 01:33:00,
2013-02-16 21:38:00,76.6,69.6,30.00,SE,132,1.0,4.0,79,0.00,,,0.00,VWS V13.00,2013-02-17 01:38:00,
2013-02-16 21:43:00,76.5,69.5,30.00,SE,132,1.0,4.0,79,0.00,,,0.00,VWS V13.00,2013-02-17 01:43:00,
2013-02-16 21:48:00,76.4,69.8,30.00,SE,137,0.0,4.0,80,0.00,,,0.00,VWS V13.00,2013-02-17 01:48:00,
2013-02-16 21:53:00,76.3,69.7,30.00,SE,137,1.0,4.0,80,0.00,,,0.00,VWS V13.00,2013-02-17 01:53:00,
2013-02-16 21:58:00,76.2,69.6,30.00,SE,137,0.0,4.0,80,0.00,,,0.00,VWS V13.00,2013-02-17 01:58:00,
2013-02-16 22:03:00,76.1,69.5,30.00,SE,137,2.0,2.0,80,0.00,,,0.00,VWS V13.00,2013-02-17 02:03:00,
2013-02-16 22:08:00,75.9,69.7,30.00,SE,137,1.0,3.0,81,0.00,,,0.00,VWS V13.00,2013-02-17 02:08:00,
2013-02-16 22:13:00,75.8,69.6,30.00,SE,137,1.0,3.0,81,0.00,,,0.00,VWS V13.00,2013-02-17 02:13:00,
2013-02-16 22:18:00,75.7,69.5,30.00,SE,137,2.0,3.0,81,0.00,,,0.00,VWS V13.00,2013-02-17 02:18:00,
2013-02-16 22:23:00,75.5,69.3,30.00,SE,137,1.0,3.0,81,0.00,,,0.00,VWS V13.00,2013-02-17 02:23:00,
2013-02-16 22:28:00,75.4,69.5,30.00,SE,137,0.0,3.0,82,0.00,,,0.00,VWS V13.00,2013-02-17 02:28:00,
2013-02-16 22:33:00,75.3,69.4,30.00,SE,137,1.0,2.0,82,0.00,,,0.00,VWS V13.00,2013-02-17 02:33:00,
2013-02-16 22:38:00,75.1,69.2,30.00,SE,144,2.0,5.0,82,0.00,,,0.00,VWS V13.00,2013-02-17 02:38:00,
2013-02-16 22:43:00,74.9,69.0,30.00,SE,144,1.0,5.0,82,0.00,,,0.00,VWS V13.00,2013-02-17 02:43:00,
2013-02-16 22:48:00,74.8,69.3,30.00,SE,144,1.0,5.0,83,0.00,,,0.00,VWS V13.00,2013-02-17 02:48:00,
2013-02-16 22:53:00,74.6,69.1,30.00,SE,144,0.0,5.0,83,0.00,,,0.00,VWS V13.00,2013-02-17 02:53:00,
2013-02-16 22:58:00,74.5,69.0,30.00,SE,144,1.0,5.0,83,0.00,,,0.00,VWS V13.00,2013-02-17 02:58:00,
2013-02-16 23:03:00,74.5,69.3,30.00,SE,144,0.0,0.0,84,0.00,,,0.00,VWS V13.00,2013-02-17 03:03:00,
2013-02-16 23:08:00,74.5,69.3,30.00,SE,144,0.0,1.0,84,0.00,,,0.00,VWS V13.00,2013-02-17 03:08:00,
2013-02-16 23:13:00,74.6,69.8,30.00,SE,144,0.0,1.0,85,0.00,,,0.00,VWS V13.00,2013-02-17 03:13:00,
2013-02-16 23:18:00,74.6,69.8,30.00,SE,144,2.0,3.0,85,0.00,,,0.00,VWS V13.00,2013-02-17 03:18:00,
2013-02-16 23:23:00,74.6,69.8,30.00,SE,144,0.0,3.0,85,0.00,,,0.00,VWS V13.00,2013-02-17 03:23:00,
2013-02-16 23:28:00,74.6,69.8,30.00,SE,144,0.0,3.0,85,0.00,,,0.00,VWS V13.00,2013-02-17 03:28:00,
2013-02-16 23:33:00,74.6,69.8,30.00,SE,144,2.0,3.0,85,0.00,,,0.00,VWS V13.00,2013-02-17 03:33:00,
2013-02-16 23:38:00,74.7,69.9,29.99,SE,144,0.0,3.0,85,0.00,,,0.00,VWS V13.00,2013-02-17 03:38:00,
2013-02-16 23:43:00,74.7,69.9,29.99,SE,144,0.0,3.0,85,0.00,,,0.00,VWS V13.00,2013-02-17 03:43:00,
2013-02-16 23:48:00,74.7,69.9,29.99,SE,144,3.0,4.0,85,0.00,,,0.00,VWS V13.00,2013-02-17 03:48:00,
2013-02-16 23:53:00,74.7,69.9,30.00,SE,126,5.0,5.0,85,0.00,,,0.00,VWS V13.00,2013-02-17 03:53:00,
2013-02-16 23:58:00,74.7,69.9,30.00,SE,146,0.0,5.0,85,0.00,,,0.00,VWS V13.00,2013-02-17 03:58:00,